Time;durP1;ratioP1;P1;durP2;ratioP2;P2;SDS_P1;SDS_P2;PMS_P1;PMS_P2;Temp;Humidity;BMP_temperature;BMP_pressure;BME280_temperature;BME280_humidity;BME280_pressure;Samples;Min_cycle;Max_cycle;Signal;HPM_P1;HPM_P2
2023/12/17 00:01:29;;;;;;;9.23;4.15;;;;;;;;;;5023351;28;20025;-83
2023/12/17 00:03:55;;;;;;;9.55;4.00;;;;;;;;;;5032215;28;20060;-82
2023/12/17 00:06:21;;;;;;;16.23;3.78;;;;;;;;;;5021449;28;20021;-82
2023/12/17 00:08:48;;;;;;;12.95;4.13;;;;;;;;;;5012493;28;20279;-83
2023/12/17 00:11:14;;;;;;;10.98;4.15;;;;;;;;;;5019077;28;20116;-83
2023/12/17 00:13:40;;;;;;;14.70;4.10;;;;;;;;;;5030497;28;20017;-83
2023/12/17 00:16:06;;;;;;;12.65;3.83;;;;;;;;;;5025218;28;20369;-82
2023/12/17 00:18:33;;;;;;;7.97;3.53;;;;;;;;;;5011426;28;20014;-82
2023/12/17 00:20:59;;;;;;;10.32;3.78;;;;;;;;;;5015286;28;20021;-82
2023/12/17 00:23:25;;;;;;;9.43;4.07;;;;;;;;;;5008978;28;20429;-83
2023/12/17 00:25:51;;;;;;;12.00;3.83;;;;;;;;;;5014772;28;20021;-83
2023/12/17 00:28:17;;;;;;;9.27;4.15;;;;;;;;;;5031236;28;20064;-83
2023/12/17 00:30:43;;;;;;;14.50;4.43;;;;;;;;;;5029625;28;20116;-82
2023/12/17 00:33:09;;;;;;;12.25;4.30;;;;;;;;;;5029774;28;20017;-83
2023/12/17 00:35:35;;;;;;;10.50;4.20;;;;;;;;;;5029433;28;20177;-83
2023/12/17 00:38:01;;;;;;;10.05;4.20;;;;;;;;;;5010227;28;20072;-82
2023/12/17 00:40:27;;;;;;;14.27;4.70;;;;;;;;;;5009775;28;20457;-82
2023/12/17 00:42:53;;;;;;;13.88;4.32;;;;;;;;;;5028403;28;20213;-82
2023/12/17 00:45:19;;;;;;;11.73;4.10;;;;;;;;;;5029639;28;20068;-82
2023/12/17 00:47:45;;;;;;;9.45;4.05;;;;;;;;;;5012172;28;20110;-83
2023/12/17 00:50:11;;;;;;;12.98;4.18;;;;;;;;;;5007988;28;20193;-83
2023/12/17 00:52:37;;;;;;;8.57;3.72;;;;;;;;;;5010452;28;20017;-83
2023/12/17 00:55:03;;;;;;;14.23;4.63;;;;;;;;;;5008952;28;20068;-83
2023/12/17 00:57:29;;;;;;;9.88;3.83;;;;;;;;;;5024987;28;20163;-83
2023/12/17 00:59:55;;;;;;;11.55;4.22;;;;;;;;;;5030694;28;20446;-83
2023/12/17 01:02:21;;;;;;;10.05;3.88;;;;;;;;;;5027808;28;20513;-81
2023/12/17 01:04:47;;;;;;;7.95;3.90;;;;;;;;;;5029378;28;20017;-83
2023/12/17 01:07:13;;;;;;;9.05;4.63;;;;;;;;;;5028930;28;20026;-82
2023/12/17 01:09:39;;;;;;;8.57;3.90;;;;;;;;;;5024568;28;20025;-83
2023/12/17 01:12:05;;;;;;;8.85;3.97;;;;;;;;;;5019329;28;20462;-82
2023/12/17 01:14:34;;;;;;;8.90;4.38;;;;;;;;;;5028944;28;20465;-83
2023/12/17 01:17:01;;;;;;;11.90;4.07;;;;;;;;;;5028535;28;20041;-82
2023/12/17 01:19:27;;;;;;;12.40;4.53;;;;;;;;;;5028982;28;20066;-83
2023/12/17 01:21:53;;;;;;;14.60;5.00;;;;;;;;;;5029328;28;20406;-83
2023/12/17 01:24:19;;;;;;;13.82;4.78;;;;;;;;;;5029522;28;20479;-83
2023/12/17 01:26:45;;;;;;;9.80;4.35;;;;;;;;;;5023421;28;20474;-83
2023/12/17 01:29:11;;;;;;;8.82;4.60;;;;;;;;;;5010745;28;20014;-83
2023/12/17 01:31:37;;;;;;;15.13;4.68;;;;;;;;;;5012415;28;20033;-83
2023/12/17 01:34:03;;;;;;;11.10;4.35;;;;;;;;;;5028710;28;20083;-83
2023/12/17 01:36:29;;;;;;;12.07;4.63;;;;;;;;;;5024409;28;20021;-82
2023/12/17 01:38:55;;;;;;;14.35;4.78;;;;;;;;;;5025615;28;20021;-83
2023/12/17 01:41:21;;;;;;;11.10;4.75;;;;;;;;;;5028852;28;20378;-83
2023/12/17 01:43:47;;;;;;;7.82;4.03;;;;;;;;;;5028503;28;20017;-83
2023/12/17 01:46:14;;;;;;;10.55;4.45;;;;;;;;;;5030237;28;20017;-83
2023/12/17 01:48:41;;;;;;;11.38;4.75;;;;;;;;;;5023302;28;20017;-83
2023/12/17 01:51:07;;;;;;;12.25;4.55;;;;;;;;;;5029743;28;20029;-82
2023/12/17 01:53:34;;;;;;;12.25;4.95;;;;;;;;;;5028809;28;20045;-82
2023/12/17 01:56:00;;;;;;;12.30;4.43;;;;;;;;;;5029859;28;20020;-83
2023/12/17 01:58:27;;;;;;;8.02;4.13;;;;;;;;;;5028995;28;20052;-82
2023/12/17 02:00:54;;;;;;;11.85;4.97;;;;;;;;;;5014145;28;20088;-83
2023/12/17 02:03:20;;;;;;;10.85;4.47;;;;;;;;;;5023835;28;20080;-83
2023/12/17 02:05:46;;;;;;;11.05;4.47;;;;;;;;;;5032303;28;20420;-83
2023/12/17 02:08:12;;;;;;;8.30;4.07;;;;;;;;;;5019172;28;20487;-83
2023/12/17 02:10:38;;;;;;;10.77;4.00;;;;;;;;;;5012580;28;20059;-82
2023/12/17 02:13:04;;;;;;;12.52;4.43;;;;;;;;;;5025836;28;20473;-83
2023/12/17 02:15:30;;;;;;;12.65;4.97;;;;;;;;;;5033735;28;20105;-83
2023/12/17 02:17:56;;;;;;;11.57;4.65;;;;;;;;;;5022021;28;20113;-83
2023/12/17 02:20:22;;;;;;;10.20;4.43;;;;;;;;;;5012271;28;20627;-81
2023/12/17 02:22:49;;;;;;;11.77;4.88;;;;;;;;;;5020913;28;20481;-83
2023/12/17 02:25:15;;;;;;;10.95;4.72;;;;;;;;;;5032340;28;20480;-83
2023/12/17 02:27:43;;;;;;;14.95;4.75;;;;;;;;;;5032087;28;20030;-82
2023/12/17 02:30:11;;;;;;;11.88;4.63;;;;;;;;;;5019521;28;20046;-83
2023/12/17 02:32:37;;;;;;;10.13;4.85;;;;;;;;;;5019548;28;20017;-83
2023/12/17 02:35:03;;;;;;;14.60;4.93;;;;;;;;;;5032110;28;20468;-83
2023/12/17 02:37:29;;;;;;;11.52;4.80;;;;;;;;;;5027307;28;20022;-83
2023/12/17 02:39:55;;;;;;;7.85;4.28;;;;;;;;;;5012448;28;20072;-83
2023/12/17 02:42:21;;;;;;;9.30;4.50;;;;;;;;;;4998950;28;20489;-83
2023/12/17 02:44:48;;;;;;;13.45;4.45;;;;;;;;;;5031957;28;20024;-83
2023/12/17 02:47:14;;;;;;;10.75;4.57;;;;;;;;;;5030034;28;20018;-83
2023/12/17 02:49:41;;;;;;;10.68;4.63;;;;;;;;;;5011722;28;20022;-83
2023/12/17 02:52:07;;;;;;;9.50;4.15;;;;;;;;;;5012300;28;20467;-83
2023/12/17 02:54:33;;;;;;;11.50;4.10;;;;;;;;;;5033081;28;20523;-82
2023/12/17 02:56:59;;;;;;;10.07;4.40;;;;;;;;;;5032896;28;20010;-83
2023/12/17 02:59:25;;;;;;;11.27;4.53;;;;;;;;;;5014831;28;20029;-83
2023/12/17 03:01:51;;;;;;;11.80;4.47;;;;;;;;;;5011959;28;20026;-83
2023/12/17 03:04:17;;;;;;;16.00;4.55;;;;;;;;;;5029207;28;20057;-83
2023/12/17 03:06:43;;;;;;;14.18;6.00;;;;;;;;;;5031792;28;20014;-83
2023/12/17 03:09:11;;;;;;;11.15;4.60;;;;;;;;;;5015572;28;20083;-83
2023/12/17 03:11:37;;;;;;;7.70;4.38;;;;;;;;;;5024850;28;20037;-83
2023/12/17 03:14:03;;;;;;;12.07;4.65;;;;;;;;;;5032648;28;20014;-83
2023/12/17 03:16:29;;;;;;;13.00;4.57;;;;;;;;;;5031871;28;20025;-82
2023/12/17 03:18:55;;;;;;;11.88;4.57;;;;;;;;;;5018132;28;20022;-83
2023/12/17 03:21:26;;;;;;;9.57;4.78;;;;;;;;;;5011562;28;20079;-83
2023/12/17 03:23:53;;;;;;;13.63;5.07;;;;;;;;;;5023870;28;20013;-83
2023/12/17 03:26:19;;;;;;;13.45;5.07;;;;;;;;;;5031065;28;20036;-83
2023/12/17 03:28:45;;;;;;;14.00;4.97;;;;;;;;;;5020354;28;20026;-83
2023/12/17 03:31:15;;;;;;;16.13;5.40;;;;;;;;;;5011500;28;20030;-83
2023/12/17 03:33:42;;;;;;;;;;;;;;;;;;5022129;28;20378;-83
2023/12/17 03:36:08;;;;;;;15.38;5.00;;;;;;;;;;5047663;28;20387;-82
2023/12/17 03:38:34;;;;;;;12.05;5.15;;;;;;;;;;5022811;28;20010;-83
2023/12/17 03:41:00;;;;;;;14.43;5.35;;;;;;;;;;5011215;28;20029;-83
2023/12/17 03:43:26;;;;;;;12.68;5.65;;;;;;;;;;5017705;28;20009;-83
2023/12/17 03:45:52;;;;;;;12.38;5.13;;;;;;;;;;5030785;28;20374;-83
2023/12/17 03:48:18;;;;;;;12.60;5.97;;;;;;;;;;5027182;28;20089;-82
2023/12/17 03:50:44;;;;;;;13.63;5.07;;;;;;;;;;5010630;28;20034;-82
2023/12/17 03:53:10;;;;;;;14.93;5.75;;;;;;;;;;5014059;28;20172;-83
2023/12/17 03:55:39;;;;;;;12.25;5.85;;;;;;;;;;5029730;28;20452;-83
2023/12/17 03:58:05;;;;;;;14.43;5.40;;;;;;;;;;5012734;28;20469;-83
2023/12/17 04:00:32;;;;;;;9.13;4.60;;;;;;;;;;5030728;28;20041;-82
2023/12/17 04:02:57;;;;;;;9.20;4.47;;;;;;;;;;5031442;28;20014;-82
2023/12/17 04:05:27;;;;;;;12.13;5.28;;;;;;;;;;5011388;28;20071;-83
2023/12/17 04:07:53;;;;;;;12.18;5.72;;;;;;;;;;5012266;28;20017;-83
2023/12/17 04:10:19;;;;;;;15.88;5.65;;;;;;;;;;5029689;28;20025;-82
2023/12/17 04:12:45;;;;;;;15.40;6.72;;;;;;;;;;5016399;28;20093;-83
2023/12/17 04:15:11;;;;;;;15.73;6.82;;;;;;;;;;5027422;28;20018;-82
2023/12/17 04:17:38;;;;;;;13.20;6.28;;;;;;;;;;5030433;28;20030;-83
2023/12/17 04:20:04;;;;;;;11.57;6.32;;;;;;;;;;5016544;28;20032;-83
2023/12/17 04:22:30;;;;;;;19.00;6.85;;;;;;;;;;5010362;28;20525;-83
2023/12/17 04:24:56;;;;;;;16.05;6.35;;;;;;;;;;5026716;28;20021;-83
2023/12/17 04:27:22;;;;;;;16.67;6.57;;;;;;;;;;5015713;28;20018;-83
2023/12/17 04:29:48;;;;;;;15.95;6.53;;;;;;;;;;5012759;28;20025;-82
2023/12/17 04:32:14;;;;;;;14.63;6.63;;;;;;;;;;5024705;28;20394;-83
2023/12/17 04:34:40;;;;;;;11.52;6.13;;;;;;;;;;5020637;28;20017;-81
2023/12/17 04:37:06;;;;;;;14.05;6.00;;;;;;;;;;5030210;28;20021;-82
2023/12/17 04:39:32;;;;;;;19.45;7.03;;;;;;;;;;5023195;28;20018;-82
2023/12/17 04:41:58;;;;;;;12.07;6.22;;;;;;;;;;5010266;28;20101;-81
2023/12/17 04:44:24;;;;;;;14.60;6.93;;;;;;;;;;5018138;28;20014;-79
2023/12/17 04:46:50;;;;;;;18.55;7.68;;;;;;;;;;5030959;28;20014;-82
2023/12/17 04:49:16;;;;;;;16.27;7.28;;;;;;;;;;5025103;28;20021;-82
2023/12/17 04:51:43;;;;;;;21.88;7.75;;;;;;;;;;5009700;28;20466;-82
2023/12/17 04:54:09;;;;;;;20.10;7.70;;;;;;;;;;5013893;28;20021;-80
2023/12/17 04:56:35;;;;;;;18.83;8.25;;;;;;;;;;5029486;28;20017;-81
2023/12/17 04:59:00;;;;;;;19.27;8.07;;;;;;;;;;5027610;28;20017;-81
2023/12/17 05:01:26;;;;;;;18.02;8.43;;;;;;;;;;5009373;28;20084;-78
2023/12/17 05:03:52;;;;;;;18.98;9.27;;;;;;;;;;5009377;28;20061;-77
2023/12/17 05:06:19;;;;;;;18.92;8.55;;;;;;;;;;5030375;28;20067;-79
2023/12/17 05:08:45;;;;;;;22.25;9.35;;;;;;;;;;5028841;28;20047;-82
2023/12/17 05:11:11;;;;;;;20.88;9.15;;;;;;;;;;5014016;28;20025;-83
2023/12/17 05:13:37;;;;;;;21.48;9.77;;;;;;;;;;5025996;28;20109;-77
2023/12/17 05:16:03;;;;;;;19.17;8.93;;;;;;;;;;5007574;28;20068;-77
2023/12/17 05:18:29;;;;;;;20.10;9.95;;;;;;;;;;5009092;28;20024;-77
2023/12/17 05:20:55;;;;;;;21.95;9.30;;;;;;;;;;5021178;28;20029;-78
2023/12/17 05:23:21;;;;;;;20.50;9.60;;;;;;;;;;5006022;28;20020;-77
2023/12/17 05:25:47;;;;;;;28.45;10.55;;;;;;;;;;5008735;28;20469;-77
2023/12/17 05:28:13;;;;;;;22.55;9.88;;;;;;;;;;5011257;28;20025;-78
2023/12/17 05:30:39;;;;;;;26.10;10.43;;;;;;;;;;5008049;28;20657;-78
2023/12/17 05:33:05;;;;;;;21.42;10.48;;;;;;;;;;5000494;28;20029;-78
2023/12/17 05:35:31;;;;;;;26.23;10.05;;;;;;;;;;5017918;28;20032;-78
2023/12/17 05:37:57;;;;;;;26.42;10.18;;;;;;;;;;5027235;28;20473;-78
2023/12/17 05:40:23;;;;;;;21.83;10.23;;;;;;;;;;5027196;28;20018;-78
2023/12/17 05:42:49;;;;;;;23.70;9.98;;;;;;;;;;5022785;28;20025;-77
2023/12/17 05:45:15;;;;;;;22.70;10.95;;;;;;;;;;5008183;28;20383;-78
2023/12/17 05:47:41;;;;;;;27.27;10.05;;;;;;;;;;5006796;28;20059;-76
2023/12/17 05:50:07;;;;;;;21.95;10.20;;;;;;;;;;5017469;28;20041;-76
2023/12/17 05:52:34;;;;;;;26.70;9.70;;;;;;;;;;5027683;28;20014;-76
2023/12/17 05:55:00;;;;;;;27.10;9.65;;;;;;;;;;5025307;28;20094;-76
2023/12/17 05:57:26;;;;;;;19.00;9.40;;;;;;;;;;5026830;28;20102;-77
2023/12/17 05:59:52;;;;;;;23.70;10.55;;;;;;;;;;5027360;28;20369;-76
2023/12/17 06:02:18;;;;;;;22.98;10.23;;;;;;;;;;5007970;28;20010;-76
2023/12/17 06:04:44;;;;;;;23.48;10.10;;;;;;;;;;5007973;28;20026;-76
2023/12/17 06:07:10;;;;;;;24.45;8.98;;;;;;;;;;5027067;28;20020;-77
2023/12/17 06:09:36;;;;;;;21.65;9.93;;;;;;;;;;5028940;28;20062;-77
2023/12/17 06:12:02;;;;;;;23.75;10.25;;;;;;;;;;5010176;28;20054;-77
2023/12/17 06:14:28;;;;;;;23.02;10.25;;;;;;;;;;5009712;28;20010;-76
2023/12/17 06:16:55;;;;;;;19.63;9.75;;;;;;;;;;5024647;28;20034;-77
2023/12/17 06:19:21;;;;;;;21.58;9.68;;;;;;;;;;5029081;28;20080;-77
2023/12/17 06:21:47;;;;;;;23.25;9.45;;;;;;;;;;5013070;28;20033;-76
2023/12/17 06:24:13;;;;;;;25.67;9.38;;;;;;;;;;5008041;28;20097;-77
2023/12/17 06:26:39;;;;;;;24.52;9.35;;;;;;;;;;5020902;28;20017;-77
2023/12/17 06:29:05;;;;;;;21.80;8.55;;;;;;;;;;5027450;28;20017;-76
2023/12/17 06:31:31;;;;;;;26.05;8.77;;;;;;;;;;5015901;28;20394;-77
2023/12/17 06:33:57;;;;;;;26.77;8.60;;;;;;;;;;5007486;28;20006;-77
2023/12/17 06:36:23;;;;;;;15.85;8.07;;;;;;;;;;5017423;28;20052;-77
2023/12/17 06:38:50;;;;;;;23.90;8.25;;;;;;;;;;5027569;28;20117;-76
2023/12/17 06:41:16;;;;;;;18.48;8.27;;;;;;;;;;5019436;28;20018;-76
2023/12/17 06:43:42;;;;;;;25.67;8.45;;;;;;;;;;5008911;28;20053;-77
2023/12/17 06:46:09;;;;;;;19.88;8.35;;;;;;;;;;5015337;28;20366;-77
2023/12/17 06:48:35;;;;;;;17.92;7.68;;;;;;;;;;5028650;28;20021;-77
2023/12/17 06:51:02;;;;;;;24.15;8.52;;;;;;;;;;5022176;28;20026;-76
2023/12/17 06:53:28;;;;;;;17.38;7.32;;;;;;;;;;5012008;28;20398;-77
2023/12/17 06:55:54;;;;;;;24.77;8.52;;;;;;;;;;5015006;28;20018;-77
2023/12/17 06:58:20;;;;;;;18.25;7.32;;;;;;;;;;5032137;28;20017;-77
2023/12/17 07:00:46;;;;;;;17.92;7.05;;;;;;;;;;5028467;28;20028;-77
2023/12/17 07:03:13;;;;;;;19.60;7.03;;;;;;;;;;5011176;28;20018;-77
2023/12/17 07:05:39;;;;;;;20.35;7.32;;;;;;;;;;5012192;28;20018;-77
2023/12/17 07:08:05;;;;;;;20.83;6.95;;;;;;;;;;5030717;28;20021;-77
2023/12/17 07:10:31;;;;;;;17.92;6.97;;;;;;;;;;5030601;28;20025;-76
2023/12/17 07:12:57;;;;;;;19.63;7.15;;;;;;;;;;5011530;28;20490;-76
2023/12/17 07:15:23;;;;;;;19.27;6.40;;;;;;;;;;5010743;28;20018;-76
2023/12/17 07:17:51;;;;;;;16.88;7.18;;;;;;;;;;5029523;28;20046;-77
2023/12/17 07:20:17;;;;;;;17.38;7.25;;;;;;;;;;5030410;28;20020;-77
2023/12/17 07:22:43;;;;;;;17.70;7.25;;;;;;;;;;5015366;28;20101;-77
2023/12/17 07:25:09;;;;;;;18.90;7.20;;;;;;;;;;5010588;28;20022;-77
2023/12/17 07:27:35;;;;;;;13.77;6.75;;;;;;;;;;5026714;28;20028;-77
2023/12/17 07:30:01;;;;;;;20.25;6.68;;;;;;;;;;5031466;28;20018;-77
2023/12/17 07:32:27;;;;;;;19.88;6.35;;;;;;;;;;5018387;28;20014;-77
2023/12/17 07:34:53;;;;;;;19.75;6.85;;;;;;;;;;5010434;28;20014;-77
2023/12/17 07:37:19;;;;;;;17.38;7.68;;;;;;;;;;5023112;28;20025;-77
2023/12/17 07:39:45;;;;;;;19.98;8.75;;;;;;;;;;5030181;28;20013;-77
2023/12/17 07:42:11;;;;;;;19.90;9.02;;;;;;;;;;5019778;28;20068;-77
2023/12/17 07:44:37;;;;;;;21.38;8.52;;;;;;;;;;5011375;28;20425;-77
2023/12/17 07:47:03;;;;;;;22.38;8.82;;;;;;;;;;5019905;28;20022;-76
2023/12/17 07:49:29;;;;;;;26.98;8.68;;;;;;;;;;5031167;28;20032;-77
2023/12/17 07:51:55;;;;;;;20.52;8.77;;;;;;;;;;5022493;28;20434;-77
2023/12/17 07:54:21;;;;;;;20.85;9.93;;;;;;;;;;5010100;28;20018;-77
2023/12/17 07:56:47;;;;;;;27.25;9.48;;;;;;;;;;5016795;28;20040;-77
2023/12/17 07:59:13;;;;;;;24.75;9.35;;;;;;;;;;5029935;28;20006;-76
2023/12/17 08:01:40;;;;;;;23.70;9.98;;;;;;;;;;5025490;28;20076;-77
2023/12/17 08:04:07;;;;;;;22.35;10.05;;;;;;;;;;5009711;28;20050;-77
2023/12/17 08:06:33;;;;;;;32.15;12.75;;;;;;;;;;5011944;28;20108;-77
2023/12/17 08:08:59;;;;;;;30.13;12.55;;;;;;;;;;5029334;28;20105;-77
2023/12/17 08:11:25;;;;;;;26.02;13.13;;;;;;;;;;5028751;28;20021;-77
2023/12/17 08:13:52;;;;;;;35.80;14.38;;;;;;;;;;5009742;28;20040;-77
2023/12/17 08:16:18;;;;;;;28.95;13.52;;;;;;;;;;5010938;28;20117;-77
2023/12/17 08:18:44;;;;;;;26.60;11.70;;;;;;;;;;5030012;28;20097;-77
2023/12/17 08:21:10;;;;;;;25.90;12.77;;;;;;;;;;5029399;28;20574;-76
2023/12/17 08:23:36;;;;;;;26.40;12.32;;;;;;;;;;5013074;28;20021;-77
2023/12/17 08:26:02;;;;;;;26.70;10.40;;;;;;;;;;5010682;28;20455;-77
2023/12/17 08:28:28;;;;;;;28.30;9.00;;;;;;;;;;5026587;28;20025;-77
2023/12/17 08:30:54;;;;;;;18.50;8.50;;;;;;;;;;5030422;28;20425;-77
2023/12/17 08:33:20;;;;;;;23.27;8.30;;;;;;;;;;5014501;28;20018;-77
2023/12/17 08:35:47;;;;;;;22.80;8.00;;;;;;;;;;5010611;28;20021;-77
2023/12/17 08:38:13;;;;;;;17.52;8.00;;;;;;;;;;5023681;28;20013;-77
2023/12/17 08:40:40;;;;;;;18.30;7.82;;;;;;;;;;5030460;28;20104;-77
2023/12/17 08:43:06;;;;;;;23.95;7.72;;;;;;;;;;5016871;28;20022;-77
2023/12/17 08:45:33;;;;;;;21.20;8.10;;;;;;;;;;5009150;28;20037;-77
2023/12/17 08:47:59;;;;;;;22.58;7.88;;;;;;;;;;5020739;28;20025;-76
2023/12/17 08:50:25;;;;;;;22.50;7.55;;;;;;;;;;5028672;28;20029;-77
2023/12/17 08:52:51;;;;;;;18.88;8.10;;;;;;;;;;5020978;28;20018;-77
2023/12/17 08:55:17;;;;;;;23.95;7.97;;;;;;;;;;5009246;28;20017;-77
2023/12/17 08:57:43;;;;;;;30.05;8.95;;;;;;;;;;5015572;28;20195;-77
2023/12/17 09:00:10;;;;;;;19.23;7.80;;;;;;;;;;5029865;28;20496;-77
2023/12/17 09:02:36;;;;;;;29.33;8.68;;;;;;;;;;5024837;28;20473;-77
2023/12/17 09:05:03;;;;;;;18.63;8.65;;;;;;;;;;5010103;28;20021;-77
2023/12/17 09:07:29;;;;;;;26.23;9.02;;;;;;;;;;5012473;28;20080;-76
2023/12/17 09:09:55;;;;;;;25.75;8.65;;;;;;;;;;5028652;28;20025;-77
2023/12/17 09:12:21;;;;;;;31.45;8.98;;;;;;;;;;5027621;28;20159;-77
2023/12/17 09:14:47;;;;;;;24.67;8.35;;;;;;;;;;5008445;28;20018;-77
2023/12/17 09:17:13;;;;;;;29.08;10.27;;;;;;;;;;5010117;28;20105;-77
2023/12/17 09:19:40;;;;;;;28.35;9.05;;;;;;;;;;5027629;28;20045;-76
2023/12/17 09:22:05;;;;;;;26.52;8.82;;;;;;;;;;5029684;28;20496;-77
2023/12/17 09:24:32;;;;;;;22.77;8.93;;;;;;;;;;5010598;28;20026;-77
2023/12/17 09:26:58;;;;;;;23.10;9.45;;;;;;;;;;5009882;28;20080;-77
2023/12/17 09:29:24;;;;;;;23.13;8.95;;;;;;;;;;5024513;28;20426;-77
2023/12/17 09:31:50;;;;;;;26.17;9.98;;;;;;;;;;5028233;28;20037;-77
2023/12/17 09:34:16;;;;;;;23.05;9.15;;;;;;;;;;5013868;28;20018;-76
2023/12/17 09:36:42;;;;;;;20.80;9.55;;;;;;;;;;5010016;28;20029;-77
2023/12/17 09:39:09;;;;;;;27.88;10.45;;;;;;;;;;5023191;28;20024;-77
2023/12/17 09:41:35;;;;;;;27.17;9.98;;;;;;;;;;5029330;28;20018;-77
2023/12/17 09:44:01;;;;;;;23.73;9.50;;;;;;;;;;5016445;28;20042;-77
2023/12/17 09:46:27;;;;;;;28.58;10.43;;;;;;;;;;5009766;28;20065;-77
2023/12/17 09:48:54;;;;;;;24.63;9.50;;;;;;;;;;5016433;28;20025;-77
2023/12/17 09:51:21;;;;;;;35.17;9.73;;;;;;;;;;5028198;28;20355;-77
2023/12/17 09:53:48;;;;;;;28.52;9.98;;;;;;;;;;5021220;28;20018;-77
2023/12/17 09:56:14;;;;;;;24.45;9.43;;;;;;;;;;5008253;28;20538;-77
2023/12/17 09:58:40;;;;;;;22.38;8.88;;;;;;;;;;5013207;28;20096;-77
2023/12/17 10:01:07;;;;;;;31.45;10.02;;;;;;;;;;5029593;28;20096;-77
2023/12/17 10:03:33;;;;;;;24.85;8.60;;;;;;;;;;5024186;28;20018;-77
2023/12/17 10:05:59;;;;;;;22.85;8.68;;;;;;;;;;5009458;28;20076;-77
2023/12/17 10:08:26;;;;;;;22.67;8.77;;;;;;;;;;5011009;28;20018;-77
2023/12/17 10:10:52;;;;;;;25.98;8.80;;;;;;;;;;5027766;28;20030;-77
2023/12/17 10:13:18;;;;;;;24.25;9.25;;;;;;;;;;5028452;28;20020;-77
2023/12/17 10:15:48;;;;;;;25.65;9.13;;;;;;;;;;5009726;28;20037;-77
2023/12/17 10:18:14;;;;;;;31.95;9.75;;;;;;;;;;5009189;28;20034;-77
2023/12/17 10:20:40;;;;;;;30.90;11.90;;;;;;;;;;5027511;28;20025;-77
2023/12/17 10:23:06;;;;;;;24.75;9.45;;;;;;;;;;5027702;28;20113;-77
2023/12/17 10:25:32;;;;;;;27.17;9.70;;;;;;;;;;5009769;28;20440;-77
2023/12/17 10:27:59;;;;;;;29.65;10.15;;;;;;;;;;5013290;28;20022;-77
2023/12/17 10:30:30;;;;;;;29.02;10.07;;;;;;;;;;5026285;28;20124;-77
2023/12/17 10:32:56;;;;;;;28.27;10.98;;;;;;;;;;5031344;28;20020;-77
2023/12/17 10:35:23;;;;;;;20.45;9.15;;;;;;;;;;5017583;28;20014;-76
2023/12/17 10:37:54;;;;;;;27.55;10.30;;;;;;;;;;5011758;28;20014;-77
2023/12/17 10:40:21;;;;;;;29.63;10.85;;;;;;;;;;5025628;28;20018;-77
2023/12/17 10:42:48;;;;;;;27.00;10.65;;;;;;;;;;5031066;28;20504;-77
2023/12/17 10:45:16;;;;;;;24.30;9.60;;;;;;;;;;5018937;28;20025;-77
2023/12/17 10:47:42;;;;;;;29.08;10.93;;;;;;;;;;5011158;28;20017;-77
2023/12/17 10:50:09;;;;;;;25.45;10.00;;;;;;;;;;5021844;28;20413;-77
2023/12/17 10:52:35;;;;;;;25.48;10.30;;;;;;;;;;5031080;28;20091;-77
2023/12/17 10:55:02;;;;;;;28.02;10.20;;;;;;;;;;5022922;28;20037;-77
2023/12/17 10:57:28;;;;;;;29.13;10.45;;;;;;;;;;5011454;28;20037;-77
2023/12/17 10:59:55;;;;;;;19.52;8.77;;;;;;;;;;5019031;28;20108;-77
2023/12/17 11:02:22;;;;;;;22.25;8.60;;;;;;;;;;5030738;28;20106;-77
2023/12/17 11:04:49;;;;;;;23.45;9.45;;;;;;;;;;5024172;28;20029;-77
2023/12/17 11:07:16;;;;;;;20.58;8.38;;;;;;;;;;5011302;28;20010;-77
2023/12/17 11:09:42;;;;;;;21.35;8.18;;;;;;;;;;5016320;28;20036;-77
2023/12/17 11:12:08;;;;;;;24.17;8.48;;;;;;;;;;5031994;28;20052;-77
2023/12/17 11:14:34;;;;;;;23.77;8.98;;;;;;;;;;5028400;28;20025;-77
2023/12/17 11:17:02;;;;;;;25.48;9.45;;;;;;;;;;5010656;28;20481;-77
2023/12/17 11:19:28;;;;;;;20.55;8.40;;;;;;;;;;5013996;28;20024;-77
2023/12/17 11:21:54;;;;;;;21.63;8.98;;;;;;;;;;5030435;28;20013;-76
2023/12/17 11:24:20;;;;;;;20.17;9.18;;;;;;;;;;5029477;28;20018;-76
2023/12/17 11:26:48;;;;;;;24.23;9.52;;;;;;;;;;5011959;28;20025;-76
2023/12/17 11:29:42;;;;;;;24.45;9.27;;;;;;;;;;5012166;28;20045;-77
2023/12/17 11:32:10;;;;;;;25.33;10.63;;;;;;;;;;4991055;28;20031;-77
2023/12/17 11:34:36;;;;;;;27.52;10.70;;;;;;;;;;5011151;28;20517;-77
2023/12/17 11:37:03;;;;;;;24.40;10.98;;;;;;;;;;5029955;28;20013;-77
2023/12/17 11:39:30;;;;;;;26.42;10.77;;;;;;;;;;5029328;28;20024;-77
2023/12/17 11:41:56;;;;;;;30.20;11.90;;;;;;;;;;5011755;28;20113;-77
2023/12/17 11:44:23;;;;;;;27.35;11.32;;;;;;;;;;5010230;28;20029;-77
2023/12/17 11:46:49;;;;;;;25.30;11.73;;;;;;;;;;5030796;28;20018;-77
2023/12/17 11:49:26;;;;;;;29.00;13.25;;;;;;;;;;5030185;28;20035;-77
2023/12/17 11:51:52;;;;;;;29.85;13.15;;;;;;;;;;5010966;28;20026;-77
2023/12/17 11:54:19;;;;;;;26.05;11.52;;;;;;;;;;5010225;28;20014;-77
2023/12/17 11:56:45;;;;;;;25.58;12.27;;;;;;;;;;5028657;28;20014;-77
2023/12/17 11:59:11;;;;;;;29.77;13.80;;;;;;;;;;5031086;28;20093;-77
2023/12/17 12:01:37;;;;;;;25.63;11.75;;;;;;;;;;5014171;28;20110;-77
2023/12/17 12:04:03;;;;;;;25.70;12.43;;;;;;;;;;5011292;28;20014;-77
2023/12/17 12:06:29;;;;;;;21.40;11.13;;;;;;;;;;5025296;28;20079;-77
2023/12/17 12:08:55;;;;;;;22.75;11.13;;;;;;;;;;5031021;28;20017;-77
2023/12/17 12:11:29;;;;;;;21.88;12.07;;;;;;;;;;5016897;28;20080;-77
2023/12/17 12:13:56;;;;;;;23.98;12.07;;;;;;;;;;5011054;28;20089;-77
2023/12/17 12:16:22;;;;;;;30.02;11.90;;;;;;;;;;5022257;28;20034;-77
2023/12/17 12:19:00;;;;;;;22.58;10.27;;;;;;;;;;5029718;28;20112;-77
2023/12/17 12:21:26;;;;;;;26.25;12.93;;;;;;;;;;5017735;28;20026;-77
2023/12/17 12:23:53;;;;;;;26.67;12.30;;;;;;;;;;5009738;28;20022;-77
2023/12/17 12:26:19;;;;;;;28.45;11.95;;;;;;;;;;5022034;28;20461;-77
2023/12/17 12:28:50;;;;;;;24.00;11.65;;;;;;;;;;5029326;28;20393;-77
2023/12/17 12:31:16;;;;;;;24.63;11.35;;;;;;;;;;5018525;28;20034;-77
2023/12/17 12:34:02;;;;;;;27.90;12.10;;;;;;;;;;5010963;28;20026;-77
2023/12/17 12:36:45;;;;;;;28.48;12.48;;;;;;;;;;5020940;28;20021;-77
2023/12/17 12:39:12;;;;;;;26.13;11.38;;;;;;;;;;5030472;28;20298;-77
2023/12/17 12:41:43;;;;;;;26.15;12.05;;;;;;;;;;5017687;28;20505;-77
2023/12/17 12:44:12;;;;;;;28.98;12.43;;;;;;;;;;5010487;28;20097;-77
2023/12/17 12:46:38;;;;;;;26.25;11.65;;;;;;;;;;5021308;28;20087;-76
2023/12/17 12:49:04;;;;;;;25.35;11.32;;;;;;;;;;5028546;28;20457;-77
2023/12/17 12:51:31;;;;;;;30.95;11.60;;;;;;;;;;5017212;28;20033;-77
2023/12/17 12:53:57;;;;;;;19.63;11.05;;;;;;;;;;5009073;28;20064;-77
2023/12/17 12:56:23;;;;;;;23.40;11.63;;;;;;;;;;5019986;28;20026;-77
2023/12/17 12:58:51;;;;;;;25.65;11.40;;;;;;;;;;5028701;28;20010;-77
2023/12/17 13:01:17;;;;;;;24.30;10.95;;;;;;;;;;5020650;28;20030;-77
2023/12/17 13:03:43;;;;;;;23.33;11.20;;;;;;;;;;5008826;28;20030;-77
2023/12/17 13:06:09;;;;;;;23.20;11.63;;;;;;;;;;5016787;28;20013;-77
2023/12/17 13:08:35;;;;;;;23.05;11.63;;;;;;;;;;5028656;28;20487;-77
2023/12/17 13:11:01;;;;;;;22.50;10.95;;;;;;;;;;5023807;28;20552;-77
2023/12/17 13:13:27;;;;;;;22.52;10.85;;;;;;;;;;5010105;28;20010;-77
2023/12/17 13:15:53;;;;;;;24.13;10.70;;;;;;;;;;5011673;28;20024;-77
2023/12/17 13:18:19;;;;;;;23.83;11.55;;;;;;;;;;5028749;28;20413;-77
2023/12/17 13:20:45;;;;;;;23.55;11.90;;;;;;;;;;5027155;28;20017;-77
2023/12/17 13:23:11;;;;;;;22.85;11.02;;;;;;;;;;5009997;28;20053;-77
2023/12/17 13:25:37;;;;;;;27.33;11.77;;;;;;;;;;5009892;28;20371;-77
2023/12/17 13:28:03;;;;;;;22.13;11.45;;;;;;;;;;5028448;28;20018;-77
2023/12/17 13:30:29;;;;;;;22.25;11.35;;;;;;;;;;5029619;28;20061;-77
2023/12/17 13:33:00;;;;;;;23.55;10.80;;;;;;;;;;5010266;28;20396;-77
2023/12/17 13:35:26;;;;;;;24.15;10.77;;;;;;;;;;5008605;28;20063;-76
2023/12/17 13:37:52;;;;;;;20.50;10.93;;;;;;;;;;5026854;28;20010;-76
2023/12/17 13:40:18;;;;;;;23.27;11.55;;;;;;;;;;5028057;28;20028;-77
2023/12/17 13:42:45;;;;;;;23.83;10.43;;;;;;;;;;5012322;28;20030;-77
2023/12/17 13:45:11;;;;;;;21.38;10.93;;;;;;;;;;5008149;28;20347;-77
2023/12/17 13:47:37;;;;;;;22.63;12.45;;;;;;;;;;5022547;28;20469;-77
2023/12/17 13:50:03;;;;;;;27.48;11.82;;;;;;;;;;5027929;28;20024;-77
2023/12/17 13:52:29;;;;;;;24.45;11.38;;;;;;;;;;5015172;28;20421;-76
2023/12/17 13:54:55;;;;;;;26.85;11.45;;;;;;;;;;5008212;28;20025;-76
2023/12/17 13:57:21;;;;;;;20.10;10.60;;;;;;;;;;5019522;28;20029;-77
2023/12/17 13:59:48;;;;;;;20.85;11.07;;;;;;;;;;5028142;28;20079;-77
2023/12/17 14:02:14;;;;;;;27.55;9.93;;;;;;;;;;5021509;28;20031;-77
2023/12/17 14:04:41;;;;;;;24.65;9.85;;;;;;;;;;5013584;28;20018;-77
2023/12/17 14:07:07;;;;;;;21.13;10.25;;;;;;;;;;5020633;28;20524;-77
2023/12/17 14:09:33;;;;;;;21.42;9.95;;;;;;;;;;5031804;28;20215;-77
2023/12/17 14:11:59;;;;;;;21.45;9.50;;;;;;;;;;5024873;28;20088;-77
2023/12/17 14:14:26;;;;;;;20.10;8.00;;;;;;;;;;5013310;28;20034;-77
2023/12/17 14:16:52;;;;;;;20.75;8.68;;;;;;;;;;5016970;28;20497;-77
2023/12/17 14:19:18;;;;;;;18.15;8.20;;;;;;;;;;5032871;28;20018;-77
2023/12/17 14:21:45;;;;;;;23.13;7.97;;;;;;;;;;5027605;28;20026;-77
2023/12/17 14:24:11;;;;;;;16.25;7.35;;;;;;;;;;5011929;28;20470;-77